Time;durP1;ratioP1;P1;durP2;ratioP2;P2;SDS_P1;SDS_P2;PMS_P1;PMS_P2;Temp;Humidity;BMP_temperature;BMP_pressure;BME280_temperature;BME280_humidity;BME280_pressure;Samples;Min_cycle;Max_cycle;Signal;HPM_P1;HPM_P2
2023/03/11 00:01:23;;;;;;;3.50;2.00;;;5.00;99.90;;;;;;5052341;28;20183;-67
2023/03/11 00:03:49;;;;;;;2.40;2.10;;;5.10;99.90;;;;;;5052741;28;20473;-68
2023/03/11 00:06:15;;;;;;;3.50;2.40;;;4.90;99.90;;;;;;5052215;28;20454;-68
2023/03/11 00:08:41;;;;;;;2.00;1.80;;;5.00;99.90;;;;;;5052183;28;20884;-68
2023/03/11 00:11:07;;;;;;;2.30;2.10;;;5.00;99.90;;;;;;5055856;28;20198;-68
2023/03/11 00:13:32;;;;;;;2.60;1.97;;;5.10;99.90;;;;;;5052808;28;20441;-68
2023/03/11 00:15:59;;;;;;;4.20;3.03;;;5.10;99.90;;;;;;5046475;28;20308;-68
2023/03/11 00:18:28;;;;;;;2.40;2.20;;;5.20;99.90;;;;;;5054866;28;20198;-68
2023/03/11 00:20:55;;;;;;;2.60;2.40;;;5.10;99.90;;;;;;5051039;28;20455;-67
2023/03/11 00:23:21;;;;;;;3.33;2.67;;;5.00;99.90;;;;;;5055009;28;20521;-68
2023/03/11 00:25:47;;;;;;;2.97;2.20;;;5.10;99.90;;;;;;5048220;28;20602;-68
2023/03/11 00:28:14;;;;;;;2.57;2.10;;;5.00;99.90;;;;;;5050557;28;20881;-67
2023/03/11 00:30:40;;;;;;;3.67;2.27;;;5.10;99.90;;;;;;5050812;28;20260;-67
2023/03/11 00:33:07;;;;;;;5.40;2.70;;;4.90;99.90;;;;;;5051598;28;20946;-67
2023/03/11 00:35:33;;;;;;;3.50;2.43;;;4.90;99.90;;;;;;5045551;28;20453;-66
2023/03/11 00:38:06;;;;;;;5.07;2.73;;;4.80;99.90;;;;;;5053635;28;20925;-67
2023/03/11 00:40:34;;;;;;;6.20;2.70;;;4.90;99.90;;;;;;5048223;28;20445;-67
2023/03/11 00:43:00;;;;;;;5.17;2.30;;;4.80;99.90;;;;;;5051454;28;20530;-67
2023/03/11 00:45:26;;;;;;;5.90;2.40;;;4.80;99.90;;;;;;5050631;28;20534;-68
2023/03/11 00:47:53;;;;;;;3.80;2.73;;;4.80;99.90;;;;;;5050320;28;20477;-68
2023/03/11 00:50:21;;;;;;;3.67;2.30;;;4.90;99.90;;;;;;5050383;28;20468;-68
2023/03/11 00:52:49;;;;;;;5.27;2.70;;;4.90;99.90;;;;;;5054386;28;20534;-67
2023/03/11 00:55:17;;;;;;;3.10;2.10;;;4.90;99.90;;;;;;5049882;28;20441;-68
2023/03/11 00:57:43;;;;;;;2.70;2.10;;;5.00;99.90;;;;;;5051603;28;20949;-67
2023/03/11 01:00:16;;;;;;;7.27;2.10;;;5.00;99.90;;;;;;5047650;28;20463;-68
2023/03/11 01:02:42;;;;;;;3.50;2.00;;;4.80;99.90;;;;;;5052028;28;20809;-67
2023/03/11 01:05:08;;;;;;;7.23;1.87;;;4.70;99.90;;;;;;5051780;28;20540;-67
2023/03/11 01:07:34;;;;;;;3.50;2.13;;;4.80;99.90;;;;;;5053518;28;20769;-67
2023/03/11 01:10:00;;;;;;;8.70;2.30;;;4.90;99.90;;;;;;5048742;28;20436;-68
2023/03/11 01:12:26;;;;;;;7.00;2.30;;;4.90;99.90;;;;;;5045498;28;20235;-68
2023/03/11 01:14:51;;;;;;;4.80;2.00;;;4.80;99.90;;;;;;5049305;28;20425;-68
2023/03/11 01:17:17;;;;;;;3.07;1.80;;;4.70;99.90;;;;;;5049228;28;20253;-68
2023/03/11 01:19:43;;;;;;;3.30;2.17;;;4.70;99.90;;;;;;5046920;28;20204;-68
2023/03/11 01:22:09;;;;;;;3.20;2.30;;;4.70;99.90;;;;;;5050307;28;20203;-68
2023/03/11 01:24:35;;;;;;;2.20;1.90;;;4.80;99.90;;;;;;5052110;28;20564;-68
2023/03/11 01:27:00;;;;;;;3.10;1.83;;;4.70;99.90;;;;;;5046039;28;20201;-67
2023/03/11 01:29:26;;;;;;;4.00;2.00;;;4.80;99.90;;;;;;5049339;28;20226;-67
2023/03/11 01:31:51;;;;;;;3.10;1.80;;;4.80;99.90;;;;;;5048504;28;20188;-67
2023/03/11 01:34:17;;;;;;;3.20;1.90;;;4.90;99.90;;;;;;5049569;28;20213;-67
2023/03/11 01:36:43;;;;;;;8.00;2.20;;;4.80;99.90;;;;;;5048985;28;20250;-67
2023/03/11 01:39:08;;;;;;;2.37;1.87;;;4.70;99.90;;;;;;5047047;28;20408;-67
2023/03/11 01:41:34;;;;;;;4.50;2.00;;;4.70;99.90;;;;;;5048544;28;20219;-67
2023/03/11 01:43:59;;;;;;;3.30;2.03;;;4.70;99.90;;;;;;5042453;28;20215;-67
2023/03/11 01:46:29;;;;;;;3.53;2.00;;;4.60;99.90;;;;;;5049914;28;20213;-67
2023/03/11 01:49:00;;;;;;;8.00;2.87;;;4.50;99.90;;;;;;5050235;28;20176;-67
2023/03/11 01:51:35;;;;;;;2.40;2.10;;;4.50;99.90;;;;;;5052090;28;20641;-67
2023/03/11 01:54:09;;;;;;;2.67;1.70;;;4.50;99.90;;;;;;5044835;28;20453;-67
2023/03/11 01:56:35;;;;;;;6.43;2.00;;;4.40;99.90;;;;;;5048552;28;20548;-67
2023/03/11 01:59:01;;;;;;;5.23;1.77;;;4.50;99.90;;;;;;5042508;28;20456;-67
2023/03/11 02:01:27;;;;;;;7.50;2.37;;;4.60;99.90;;;;;;5052204;28;20449;-67
2023/03/11 02:03:55;;;;;;;5.63;2.10;;;4.60;99.90;;;;;;5049003;28;21009;-67
2023/03/11 02:06:23;;;;;;;2.60;1.90;;;4.70;99.90;;;;;;5049266;28;20456;-68
2023/03/11 02:08:49;;;;;;;4.30;2.13;;;4.60;99.90;;;;;;5049143;28;20437;-68
2023/03/11 02:11:21;;;;;;;4.13;2.20;;;4.70;99.90;;;;;;5050012;28;20986;-68
2023/03/11 02:13:48;;;;;;;3.20;1.87;;;4.60;99.90;;;;;;5048326;28;20957;-68
2023/03/11 02:16:14;;;;;;;4.80;1.90;;;4.60;99.90;;;;;;5049741;28;20463;-67
2023/03/11 02:18:42;;;;;;;4.43;2.03;;;4.60;99.90;;;;;;5046577;28;20435;-68
2023/03/11 02:21:07;;;;;;;4.53;2.10;;;4.60;99.90;;;;;;5043882;28;20956;-68
2023/03/11 02:23:44;;;;;;;10.73;2.73;;;4.50;99.90;;;;;;5052094;28;20449;-67
2023/03/11 02:26:24;;;;;;;3.40;2.10;;;4.40;99.90;;;;;;5046919;28;20222;-68
2023/03/11 02:28:52;;;;;;;3.03;2.00;;;4.30;99.90;;;;;;5048419;28;20472;-69
2023/03/11 02:31:18;;;;;;;6.67;2.10;;;4.30;99.90;;;;;;5048653;28;20483;-68
2023/03/11 02:33:48;;;;;;;4.20;2.20;;;4.30;99.90;;;;;;5048425;28;20445;-68
2023/03/11 02:36:38;;;;;;;4.73;2.23;;;4.30;99.90;;;;;;5047201;28;20714;-68
2023/03/11 02:39:04;;;;;;;4.13;2.00;;;4.20;99.90;;;;;;5043577;28;20971;-68
2023/03/11 02:41:33;;;;;;;3.83;2.00;;;4.40;99.90;;;;;;5051195;28;20441;-68
2023/03/11 02:44:00;;;;;;;4.90;2.50;;;4.30;99.90;;;;;;5047691;28;20869;-68
2023/03/11 02:46:26;;;;;;;3.10;2.10;;;4.30;99.90;;;;;;5046239;28;20854;-68
2023/03/11 02:48:52;;;;;;;4.50;3.13;;;4.20;99.90;;;;;;5040020;28;20433;-67
2023/03/11 02:51:18;;;;;;;3.40;3.10;;;4.10;99.90;;;;;;5050874;28;20175;-67
2023/03/11 02:53:48;;;;;;;4.00;2.30;;;4.30;99.90;;;;;;5047390;28;20450;-68
2023/03/11 02:56:13;;;;;;;2.63;2.10;;;4.20;99.90;;;;;;5043148;28;20203;-68
2023/03/11 02:58:39;;;;;;;3.47;2.03;;;4.30;99.90;;;;;;5046749;28;20441;-68
2023/03/11 03:01:04;;;;;;;2.73;2.00;;;4.30;99.90;;;;;;5049385;28;20191;-67
2023/03/11 03:03:30;;;;;;;4.37;1.90;;;4.20;99.90;;;;;;5048861;28;20339;-67
2023/03/11 03:05:55;;;;;;;2.80;2.50;;;4.10;99.90;;;;;;5045119;28;20223;-67
2023/03/11 03:08:21;;;;;;;2.93;2.17;;;4.20;99.90;;;;;;5048466;28;20204;-67
2023/03/11 03:10:47;;;;;;;5.87;2.10;;;4.20;99.90;;;;;;5044540;28;20187;-67
2023/03/11 03:13:12;;;;;;;9.93;2.33;;;4.10;99.90;;;;;;5045571;28;20191;-67
2023/03/11 03:15:38;;;;;;;5.70;2.03;;;4.00;99.90;;;;;;5045222;28;20187;-67
2023/03/11 03:18:04;;;;;;;3.53;2.83;;;4.10;99.90;;;;;;5048561;28;20201;-67
2023/03/11 03:20:29;;;;;;;3.97;2.60;;;4.10;99.90;;;;;;5048090;28;20564;-67
2023/03/11 03:22:55;;;;;;;4.60;2.17;;;4.10;99.90;;;;;;5049241;28;20186;-67
2023/03/11 03:25:21;;;;;;;3.60;2.23;;;4.10;99.90;;;;;;5041758;28;20180;-67
2023/03/11 03:27:47;;;;;;;4.00;2.40;;;4.10;99.90;;;;;;5047425;28;20207;-68
2023/03/11 03:30:13;;;;;;;5.20;2.17;;;4.00;99.90;;;;;;5050300;28;20429;-68
2023/03/11 03:32:39;;;;;;;2.40;2.20;;;4.10;99.90;;;;;;5049194;28;20449;-68
2023/03/11 03:35:06;;;;;;;6.13;2.20;;;4.10;99.90;;;;;;5048893;28;20506;-68
2023/03/11 03:37:35;;;;;;;3.30;2.40;;;4.10;99.90;;;;;;5051920;28;20835;-68
2023/03/11 03:40:01;;;;;;;3.30;2.40;;;4.10;99.90;;;;;;5053220;28;20433;-68
2023/03/11 03:42:27;;;;;;;3.00;2.30;;;4.10;99.90;;;;;;5052243;28;20574;-68
2023/03/11 03:44:52;;;;;;;6.83;3.00;;;4.00;99.90;;;;;;5049594;28;20521;-68
2023/03/11 03:47:19;;;;;;;3.37;2.50;;;4.10;99.90;;;;;;5050607;28;20207;-68
2023/03/11 03:49:44;;;;;;;5.30;2.50;;;4.00;99.90;;;;;;5050791;28;20190;-67
2023/03/11 03:52:10;;;;;;;3.30;2.23;;;4.20;99.90;;;;;;5051516;28;20437;-67
2023/03/11 03:54:36;;;;;;;2.60;2.20;;;4.30;99.90;;;;;;5048133;28;20191;-68
2023/03/11 03:57:03;;;;;;;4.77;2.47;;;4.30;99.90;;;;;;5049171;28;20211;-68
2023/03/11 03:59:28;;;;;;;6.10;2.57;;;4.20;99.90;;;;;;5053580;28;20496;-68
2023/03/11 04:01:54;;;;;;;4.93;2.60;;;4.20;99.90;;;;;;5048684;28;20991;-68
2023/03/11 04:04:19;;;;;;;6.53;2.47;;;4.20;99.90;;;;;;5046880;28;20195;-68
2023/03/11 04:06:45;;;;;;;3.77;2.47;;;4.20;99.90;;;;;;5053227;28;20194;-67
2023/03/11 04:09:11;;;;;;;6.70;2.93;;;4.10;99.90;;;;;;5049549;28;22594;-68
2023/03/11 04:11:37;;;;;;;9.40;3.60;;;4.10;99.90;;;;;;5055385;28;20187;-67
2023/03/11 04:14:04;;;;;;;4.40;2.53;;;4.10;99.90;;;;;;5044497;28;20491;-68
2023/03/11 04:16:30;;;;;;;4.20;2.60;;;4.00;99.90;;;;;;5052405;28;20284;-67
2023/03/11 04:18:55;;;;;;;9.70;3.17;;;4.00;99.90;;;;;;5047914;28;20955;-68
2023/03/11 04:21:21;;;;;;;2.53;2.23;;;4.00;99.90;;;;;;5053095;28;20583;-67
2023/03/11 04:23:46;;;;;;;6.30;2.60;;;4.00;99.90;;;;;;5051527;28;20710;-67
2023/03/11 04:26:12;;;;;;;4.37;2.43;;;4.00;99.90;;;;;;5049844;28;20252;-68
2023/03/11 04:28:37;;;;;;;5.20;3.20;;;3.90;99.90;;;;;;5053688;28;20187;-67
2023/03/11 04:31:03;;;;;;;7.10;2.50;;;3.90;99.90;;;;;;5048761;28;20600;-68
2023/03/11 04:33:29;;;;;;;4.60;2.60;;;3.90;99.90;;;;;;5050977;28;20229;-68
2023/03/11 04:35:55;;;;;;;4.03;2.47;;;3.80;99.90;;;;;;5047972;28;20460;-68
2023/03/11 04:38:20;;;;;;;7.07;2.73;;;3.70;99.90;;;;;;5050801;28;20183;-69
2023/03/11 04:40:46;;;;;;;8.80;2.60;;;3.80;99.90;;;;;;5048026;28;20612;-68
2023/03/11 04:43:11;;;;;;;5.07;2.50;;;3.80;99.90;;;;;;5055242;28;20207;-67
2023/03/11 04:45:38;;;;;;;4.67;2.50;;;3.70;99.90;;;;;;5049709;28;20180;-67
2023/03/11 04:48:04;;;;;;;7.27;3.10;;;3.70;99.90;;;;;;5046201;28;20195;-67
2023/03/11 04:50:29;;;;;;;3.53;2.50;;;3.60;99.90;;;;;;5053089;28;20426;-67
2023/03/11 04:52:55;;;;;;;4.93;2.63;;;3.60;99.90;;;;;;5050494;28;20187;-68
2023/03/11 04:55:21;;;;;;;4.43;2.33;;;3.60;99.90;;;;;;5052349;28;20187;-67
2023/03/11 04:57:47;;;;;;;3.90;2.30;;;3.60;99.90;;;;;;5048418;28;21069;-67
2023/03/11 05:00:14;;;;;;;4.73;2.73;;;3.60;99.90;;;;;;5047627;28;20429;-67
2023/03/11 05:02:41;;;;;;;6.07;2.13;;;3.60;99.90;;;;;;5049991;28;20186;-68
2023/03/11 05:05:08;;;;;;;4.97;2.17;;;3.60;99.90;;;;;;5051714;28;20469;-67
2023/03/11 05:07:34;;;;;;;3.73;2.40;;;3.60;99.90;;;;;;5049400;28;20531;-67
2023/03/11 05:10:00;;;;;;;2.70;2.00;;;3.70;99.90;;;;;;5050774;28;20495;-67
2023/03/11 05:12:26;;;;;;;4.60;2.10;;;3.70;99.90;;;;;;5050173;28;20437;-68
2023/03/11 05:14:52;;;;;;;3.97;2.47;;;3.50;99.90;;;;;;5052025;28;20183;-67
2023/03/11 05:17:18;;;;;;;3.70;2.17;;;3.50;99.90;;;;;;5048404;28;20449;-68
2023/03/11 05:19:44;;;;;;;3.83;2.53;;;3.50;99.90;;;;;;5046924;28;20185;-68
2023/03/11 05:22:10;;;;;;;8.90;2.50;;;3.50;99.90;;;;;;5048084;28;20475;-69
2023/03/11 05:24:35;;;;;;;4.43;3.73;;;3.60;99.90;;;;;;5046466;28;20453;-66
2023/03/11 05:27:02;;;;;;;4.63;2.67;;;3.60;99.90;;;;;;5047587;28;20453;-66
2023/03/11 05:29:28;;;;;;;5.03;2.53;;;3.50;99.90;;;;;;5051259;28;20270;-67
2023/03/11 05:31:54;;;;;;;4.80;3.00;;;3.50;99.90;;;;;;5051112;28;20441;-66
2023/03/11 05:34:20;;;;;;;4.80;2.30;;;3.50;99.90;;;;;;5051083;28;20443;-66
2023/03/11 05:36:45;;;;;;;3.53;2.47;;;3.50;99.90;;;;;;5053606;28;20468;-67
2023/03/11 05:39:11;;;;;;;3.03;2.20;;;3.30;99.90;;;;;;5044297;28;20444;-67
2023/03/11 05:41:37;;;;;;;4.53;3.17;;;3.30;99.90;;;;;;5050648;28;20195;-67
2023/03/11 05:44:03;;;;;;;6.83;2.63;;;3.30;99.90;;;;;;5046861;28;20495;-67
2023/03/11 05:46:28;;;;;;;5.20;2.37;;;3.30;99.90;;;;;;5052064;28;20203;-67
2023/03/11 05:48:55;;;;;;;4.80;2.67;;;3.40;99.90;;;;;;5047213;28;20456;-67
2023/03/11 05:51:21;;;;;;;6.00;4.63;;;3.40;99.90;;;;;;5050629;28;20446;-67
2023/03/11 05:53:48;;;;;;;8.30;2.83;;;3.40;99.90;;;;;;5050287;28;20194;-67
2023/03/11 05:56:14;;;;;;;3.90;2.40;;;3.40;99.90;;;;;;5049814;28;20252;-68
2023/03/11 05:58:41;;;;;;;2.50;2.17;;;3.30;99.90;;;;;;5042018;28;20442;-67
2023/03/11 06:01:12;;;;;;;4.60;2.40;;;3.30;99.90;;;;;;5047130;28;20516;-68
2023/03/11 06:03:38;;;;;;;7.07;2.40;;;3.30;99.90;;;;;;5046151;28;20465;-67
2023/03/11 06:06:06;;;;;;;5.97;2.40;;;3.30;99.90;;;;;;5049593;28;20528;-67
2023/03/11 06:08:35;;;;;;;4.30;2.60;;;3.30;99.90;;;;;;5048211;28;20430;-67
2023/03/11 06:11:02;;;;;;;4.40;2.77;;;3.20;99.90;;;;;;5041269;28;20446;-67
2023/03/11 06:13:28;;;;;;;8.50;2.90;;;3.30;99.90;;;;;;5047928;28;20534;-67
2023/03/11 06:15:53;;;;;;;7.23;2.77;;;3.30;99.90;;;;;;5046447;28;20440;-68
2023/03/11 06:18:19;;;;;;;5.43;2.60;;;3.40;99.90;;;;;;5047724;28;20183;-68
2023/03/11 06:20:44;;;;;;;2.87;2.40;;;3.30;99.90;;;;;;5047329;28;20199;-68
2023/03/11 06:23:10;;;;;;;5.47;2.60;;;3.40;99.90;;;;;;5042497;28;20187;-67
2023/03/11 06:25:35;;;;;;;7.53;2.87;;;3.40;99.90;;;;;;5047912;28;20184;-68
2023/03/11 06:28:01;;;;;;;3.40;1.97;;;3.30;99.90;;;;;;5049562;28;20206;-68
2023/03/11 06:30:26;;;;;;;6.47;3.30;;;3.30;99.90;;;;;;5048453;28;20302;-67
2023/03/11 06:32:53;;;;;;;4.33;3.33;;;3.40;99.90;;;;;;5050711;28;20187;-67
2023/03/11 06:35:19;;;;;;;3.90;2.63;;;3.40;99.90;;;;;;5044328;28;20210;-67
2023/03/11 06:37:45;;;;;;;3.50;2.50;;;3.40;99.90;;;;;;5052111;28;20499;-67
2023/03/11 06:40:11;;;;;;;3.80;2.33;;;3.40;99.90;;;;;;5048357;28;20197;-67
2023/03/11 06:42:36;;;;;;;4.33;2.30;;;3.40;99.90;;;;;;5049783;28;20180;-68
2023/03/11 06:45:02;;;;;;;5.27;1.93;;;3.50;99.90;;;;;;5048273;28;20484;-68
2023/03/11 06:47:28;;;;;;;5.70;2.47;;;3.50;99.90;;;;;;5052123;28;20595;-68
2023/03/11 06:49:53;;;;;;;4.93;2.67;;;3.50;99.90;;;;;;5049206;28;20181;-66
2023/03/11 06:52:19;;;;;;;4.57;2.67;;;3.60;99.90;;;;;;5048732;28;20183;-68
2023/03/11 06:54:45;;;;;;;6.23;4.47;;;3.70;99.90;;;;;;5049123;28;20180;-68
2023/03/11 06:57:11;;;;;;;5.30;2.40;;;3.80;99.90;;;;;;5043044;28;20465;-68
2023/03/11 06:59:37;;;;;;;5.17;2.43;;;3.80;99.90;;;;;;5048279;28;20441;-68
2023/03/11 07:02:06;;;;;;;3.57;2.50;;;3.70;99.90;;;;;;5046881;28;20560;-68
2023/03/11 07:04:32;;;;;;;5.67;2.60;;;3.70;99.90;;;;;;5046265;28;20305;-68
2023/03/11 07:06:58;;;;;;;8.10;2.63;;;3.80;99.90;;;;;;5053135;28;20475;-69
2023/03/11 07:09:24;;;;;;;5.67;2.47;;;3.80;99.90;;;;;;5049606;28;20430;-68
2023/03/11 07:11:53;;;;;;;4.13;3.00;;;3.70;99.90;;;;;;5054582;28;20495;-68
2023/03/11 07:14:22;;;;;;;4.57;2.70;;;3.70;99.90;;;;;;5048271;28;20438;-69
2023/03/11 07:16:48;;;;;;;4.50;2.50;;;3.70;99.90;;;;;;5052539;28;20456;-69
2023/03/11 07:19:13;;;;;;;2.67;2.20;;;3.60;99.90;;;;;;5038947;28;20436;-67
2023/03/11 07:21:42;;;;;;;4.43;2.43;;;3.60;99.90;;;;;;5047584;28;20955;-68
2023/03/11 07:24:07;;;;;;;9.10;2.87;;;3.70;99.90;;;;;;5047580;28;21481;-67
2023/03/11 07:26:34;;;;;;;3.80;2.77;;;3.70;99.90;;;;;;5051535;28;20499;-68
2023/03/11 07:29:00;;;;;;;4.67;2.40;;;3.80;99.90;;;;;;5045128;28;20195;-68
2023/03/11 07:31:28;;;;;;;8.93;4.27;;;3.80;99.90;;;;;;5048199;28;20524;-67
2023/03/11 07:33:57;;;;;;;4.10;2.37;;;3.90;99.90;;;;;;5046955;28;20615;-68
2023/03/11 07:36:24;;;;;;;4.87;2.60;;;3.90;99.90;;;;;;5048178;28;20457;-67
2023/03/11 07:38:57;;;;;;;5.30;2.57;;;4.00;99.90;;;;;;5048433;28;20824;-67
2023/03/11 07:41:22;;;;;;;3.60;2.20;;;3.90;99.90;;;;;;5065109;28;20433;-67
2023/03/11 07:43:48;;;;;;;4.70;2.67;;;3.90;99.90;;;;;;5052845;28;20499;-69
2023/03/11 07:46:17;;;;;;;10.43;2.40;;;4.00;99.90;;;;;;5048625;28;20199;-69
2023/03/11 07:48:44;;;;;;;4.00;2.70;;;3.90;99.90;;;;;;5051342;28;20236;-68
2023/03/11 07:51:19;;;;;;;7.67;2.97;;;4.10;99.90;;;;;;5047912;28;20452;-68
2023/03/11 07:53:45;;;;;;;6.80;2.57;;;4.10;99.90;;;;;;5046318;28;20585;-68
2023/03/11 07:56:12;;;;;;;8.40;2.60;;;4.00;99.90;;;;;;5049863;28;20846;-69
2023/03/11 07:58:38;;;;;;;7.83;3.00;;;4.20;99.90;;;;;;5050733;28;20433;-69
2023/03/11 08:01:06;;;;;;;5.13;2.10;;;4.20;99.90;;;;;;5046637;28;20511;-69
2023/03/11 08:03:35;;;;;;;6.60;2.83;;;4.40;99.90;;;;;;5047008;28;20461;-69
2023/03/11 08:06:01;;;;;;;4.23;2.23;;;4.50;99.90;;;;;;5047287;28;20465;-68
2023/03/11 08:08:27;;;;;;;8.73;2.80;;;4.50;99.90;;;;;;5046293;28;20433;-67
2023/03/11 08:10:53;;;;;;;3.73;2.10;;;4.30;99.90;;;;;;5044417;28;20175;-68
2023/03/11 08:13:19;;;;;;;7.77;2.67;;;4.30;99.90;;;;;;5047833;28;20438;-68
2023/03/11 08:15:44;;;;;;;5.50;2.77;;;4.30;99.90;;;;;;5047109;28;20190;-68
2023/03/11 08:18:10;;;;;;;8.57;3.47;;;4.40;99.90;;;;;;5048119;28;20765;-67
2023/03/11 08:20:38;;;;;;;5.77;2.93;;;4.50;99.90;;;;;;5046080;28;21117;-67
2023/03/11 08:23:04;;;;;;;3.53;2.60;;;4.50;99.90;;;;;;5043291;28;20199;-67
2023/03/11 08:25:30;;;;;;;5.63;2.70;;;4.50;99.90;;;;;;5050628;28;20587;-68
2023/03/11 08:27:56;;;;;;;7.60;2.80;;;4.70;99.90;;;;;;5046501;28;20205;-68
2023/03/11 08:30:22;;;;;;;4.23;2.53;;;4.50;99.90;;;;;;5045831;28;20183;-67
2023/03/11 08:32:48;;;;;;;9.73;2.57;;;4.60;99.90;;;;;;5050703;28;20186;-67
2023/03/11 08:35:15;;;;;;;5.77;2.67;;;4.40;99.90;;;;;;5040421;28;20536;-65
2023/03/11 08:37:40;;;;;;;3.83;2.43;;;4.50;99.90;;;;;;5043360;28;20452;-68
2023/03/11 08:40:09;;;;;;;5.70;3.00;;;4.60;99.90;;;;;;5047945;28;20448;-66
2023/03/11 08:42:34;;;;;;;5.93;2.60;;;4.70;99.90;;;;;;5055793;28;20176;-66
2023/03/11 08:45:00;;;;;;;10.87;2.90;;;4.80;99.90;;;;;;5044684;28;20457;-66
2023/03/11 08:47:25;;;;;;;4.87;2.50;;;4.70;99.90;;;;;;5041924;28;20301;-65
2023/03/11 08:49:51;;;;;;;3.60;2.53;;;4.90;99.90;;;;;;5047180;28;20191;-68
2023/03/11 08:52:17;;;;;;;6.40;2.97;;;4.90;99.90;;;;;;5045897;28;20183;-66
2023/03/11 08:54:42;;;;;;;3.40;2.50;;;4.90;99.90;;;;;;5048411;28;20326;-66
2023/03/11 08:57:08;;;;;;;7.73;2.60;;;4.80;99.90;;;;;;5051809;28;20238;-66
2023/03/11 08:59:34;;;;;;;6.30;2.70;;;4.80;99.90;;;;;;5053211;28;20184;-66
2023/03/11 09:02:00;;;;;;;6.50;2.90;;;4.90;99.90;;;;;;5054428;28;20179;-66
2023/03/11 09:04:25;;;;;;;4.20;2.40;;;5.00;99.90;;;;;;5050872;28;20541;-66
2023/03/11 09:06:51;;;;;;;5.17;2.60;;;5.10;99.90;;;;;;5053887;28;20203;-66
2023/03/11 09:09:19;;;;;;;9.77;3.00;;;5.30;99.90;;;;;;5053606;28;20458;-66
2023/03/11 09:11:45;;;;;;;3.50;2.50;;;5.40;99.90;;;;;;5054261;28;20179;-66
2023/03/11 09:14:11;;;;;;;6.10;2.73;;;5.30;99.90;;;;;;5053059;28;20590;-66
2023/03/11 09:16:36;;;;;;;7.10;3.10;;;5.50;99.90;;;;;;5052550;28;20521;-66
2023/03/11 09:19:05;;;;;;;6.37;2.70;;;5.60;99.90;;;;;;5053805;28;20232;-66
2023/03/11 09:21:32;;;;;;;7.17;3.27;;;5.60;99.90;;;;;;5055707;28;20258;-66
2023/03/11 09:23:58;;;;;;;6.07;3.07;;;5.60;99.90;;;;;;5052493;28;20487;-66
2023/03/11 09:26:24;;;;;;;4.40;2.40;;;5.70;99.90;;;;;;5050202;28;20449;-66
2023/03/11 09:28:50;;;;;;;7.90;2.60;;;5.70;99.90;;;;;;5050007;28;20444;-66
2023/03/11 09:31:16;;;;;;;9.50;3.20;;;5.80;99.90;;;;;;5053541;28;20437;-66
2023/03/11 09:33:42;;;;;;;5.27;2.57;;;5.80;99.90;;;;;;5050071;28;20213;-66
2023/03/11 09:36:14;;;;;;;6.83;2.83;;;5.90;99.90;;;;;;5047132;28;20203;-66
2023/03/11 09:38:40;;;;;;;7.50;2.77;;;6.10;99.90;;;;;;5054886;28;20438;-66
2023/03/11 09:41:39;;;;;;;10.20;2.47;;;6.10;99.90;;;;;;5052315;28;20442;-66
2023/03/11 09:44:10;;;;;;;6.13;2.73;;;6.20;99.90;;;;;;5053614;28;20949;-66
2023/03/11 09:47:10;;;;;;;7.23;2.57;;;6.40;99.90;;;;;;5050480;28;20472;-66
2023/03/11 09:50:07;;;;;;;6.60;3.67;;;6.50;99.90;;;;;;5054721;28;20466;-66
2023/03/11 09:52:42;;;;;;;4.73;2.70;;;6.60;99.90;;;;;;5054595;28;20430;-66
2023/03/11 09:55:25;;;;;;;5.73;2.87;;;6.50;99.90;;;;;;5049400;28;20528;-67
2023/03/11 09:57:52;;;;;;;6.97;2.53;;;6.60;99.90;;;;;;5052728;28;20453;-66
2023/03/11 10:00:22;;;;;;;5.63;2.40;;;6.60;99.90;;;;;;5051389;28;20418;-66
2023/03/11 10:02:49;;;;;;;7.43;2.97;;;6.50;99.90;;;;;;5051571;28;20442;-66
2023/03/11 10:05:27;;;;;;;4.30;2.30;;;6.50;99.90;;;;;;5050860;28;20457;-66
2023/03/11 10:08:18;;;;;;;5.40;2.70;;;6.50;99.90;;;;;;5047993;28;20972;-66
2023/03/11 10:10:50;;;;;;;9.87;2.90;;;6.60;99.90;;;;;;5049797;28;20872;-66
2023/03/11 10:13:40;;;;;;;2.77;2.47;;;6.60;99.90;;;;;;5050347;28;20845;-66
2023/03/11 10:16:40;;;;;;;4.70;2.67;;;6.60;99.90;;;;;;5048724;28;20453;-66
2023/03/11 10:19:37;;;;;;;10.40;3.30;;;6.80;99.90;;;;;;5051196;28;20426;-66
2023/03/11 10:22:31;;;;;;;3.70;2.40;;;6.80;99.90;;;;;;5053983;28;20428;-66
2023/03/11 10:25:17;;;;;;;8.57;2.70;;;6.80;99.90;;;;;;5049028;28;20465;-66
2023/03/11 10:27:58;;;;;;;5.60;2.80;;;6.70;99.90;;;;;;5050159;28;20460;-66
2023/03/11 10:30:29;;;;;;;3.40;2.33;;;6.70;99.90;;;;;;5064509;28;20520;-66
2023/03/11 10:33:20;;;;;;;3.47;2.30;;;6.80;99.90;;;;;;5050062;28;20433;-66
2023/03/11 10:35:51;;;;;;;2.97;2.30;;;6.90;99.90;;;;;;5053674;28;20512;-66
2023/03/11 10:38:30;;;;;;;3.10;2.20;;;7.00;99.90;;;;;;5051041;28;20472;-66
2023/03/11 10:40:58;;;;;;;5.50;3.13;;;7.00;99.90;;;;;;5052094;28;20448;-67
2023/03/11 10:43:35;;;;;;;3.87;2.40;;;6.60;99.90;;;;;;5054796;28;20474;-66
2023/03/11 10:46:05;;;;;;;5.33;2.93;;;6.60;99.90;;;;;;5055317;28;20490;-66
2023/03/11 10:48:31;;;;;;;4.00;2.30;;;6.70;99.90;;;;;;5056988;28;20443;-66
2023/03/11 10:51:04;;;;;;;3.67;2.20;;;6.70;99.90;;;;;;5057994;28;20433;-66
2023/03/11 10:53:30;;;;;;;2.80;2.00;;;6.90;99.90;;;;;;5056243;28;20233;-66
2023/03/11 10:55:58;;;;;;;6.90;2.60;;;7.00;99.90;;;;;;5056917;28;20455;-66
2023/03/11 10:58:30;;;;;;;2.43;2.20;;;7.10;99.90;;;;;;5050904;28;20459;-66
2023/03/11 11:00:59;;;;;;;2.83;2.30;;;7.30;99.90;;;;;;5053873;28;20758;-66
2023/03/11 11:03:25;;;;;;;6.30;2.77;;;7.30;99.90;;;;;;5053503;28;20444;-66
2023/03/11 11:06:06;;;;;;;3.30;2.00;;;7.50;99.90;;;;;;5053873;28;20958;-66
2023/03/11 11:08:33;;;;;;;3.33;2.60;;;7.50;99.90;;;;;;5066182;28;20176;-65
2023/03/11 11:11:01;;;;;;;10.23;6.50;;;7.60;99.90;;;;;;5056785;28;20431;-66
2023/03/11 11:13:30;;;;;;;3.73;3.10;;;7.60;99.90;;;;;;5051846;28;20455;-65
2023/03/11 11:16:02;;;;;;;6.10;2.53;;;7.60;99.90;;;;;;5045847;28;20433;-66
2023/03/11 11:18:35;;;;;;;8.77;2.73;;;7.20;97.70;;;;;;5047427;28;20444;-66
2023/03/11 11:21:09;;;;;;;4.80;3.20;;;7.10;97.20;;;;;;5047827;28;20437;-66
2023/03/11 11:23:48;;;;;;;5.33;2.47;;;7.30;98.10;;;;;;5050060;28;20980;-66
2023/03/11 11:26:24;;;;;;;4.07;2.33;;;7.40;99.00;;;;;;5045864;28;22466;-66
2023/03/11 11:29:08;;;;;;;3.80;2.30;;;7.40;96.80;;;;;;5042530;28;20430;-66
2023/03/11 11:31:36;;;;;;;4.30;2.50;;;7.40;97.70;;;;;;5042538;28;20673;-66
2023/03/11 11:34:01;;;;;;;5.10;2.70;;;7.70;98.10;;;;;;5046295;28;20445;-66
2023/03/11 11:36:35;;;;;;;3.23;2.40;;;8.00;98.30;;;;;;5046618;28;20630;-66
2023/03/11 11:39:08;;;;;;;3.50;2.53;;;8.20;97.20;;;;;;5044747;28;20183;-67
2023/03/11 11:41:35;;;;;;;7.07;2.70;;;8.50;96.30;;;;;;5045030;28;20639;-66
2023/03/11 11:44:09;;;;;;;4.90;2.50;;;8.60;94.60;;;;;;5045118;28;20466;-66
2023/03/11 11:46:46;;;;;;;3.40;2.40;;;8.70;92.50;;;;;;5036830;28;20526;-67
2023/03/11 11:49:20;;;;;;;5.80;2.93;;;8.70;93.30;;;;;;5041175;28;20491;-67
2023/03/11 11:52:05;;;;;;;5.47;2.87;;;8.90;93.90;;;;;;5046391;28;20436;-67
2023/03/11 11:54:37;;;;;;;4.70;2.50;;;9.10;93.60;;;;;;5044881;28;21031;-65
2023/03/11 11:57:18;;;;;;;4.90;2.33;;;9.40;94.60;;;;;;5043947;28;20967;-65
2023/03/11 11:59:44;;;;;;;7.20;3.20;;;9.50;93.10;;;;;;5046698;28;20490;-65
2023/03/11 12:02:28;;;;;;;5.13;2.73;;;9.20;91.30;;;;;;5047384;28;21366;-65
2023/03/11 12:04:55;;;;;;;5.90;2.63;;;9.60;91.60;;;;;;5046208;28;20906;-65
2023/03/11 12:07:46;;;;;;;5.43;2.60;;;9.90;92.30;;;;;;5042986;28;20456;-66
2023/03/11 12:10:40;;;;;;;2.87;2.53;;;10.30;91.50;;;;;;5041932;28;20473;-66
2023/03/11 12:13:27;;;;;;;5.77;2.40;;;11.00;88.10;;;;;;5043492;28;21013;-66
2023/03/11 12:16:31;;;;;;;6.23;3.20;;;13.90;87.00;;;;;;5046608;28;20456;-66
2023/03/11 12:19:29;;;;;;;7.03;2.93;;;17.50;73.80;;;;;;5041501;28;20742;-67
2023/03/11 12:22:31;;;;;;;3.77;2.60;;;20.60;59.60;;;;;;5043458;28;20438;-65
2023/03/11 12:25:16;;;;;;;3.67;2.67;;;22.40;49.60;;;;;;5044006;28;20858;-65
2023/03/11 12:27:41;;;;;;;4.40;2.80;;;21.80;42.00;;;;;;5040725;28;21082;-63
2023/03/11 12:30:18;;;;;;;4.30;2.50;;;21.50;41.90;;;;;;5047190;28;20438;-63
2023/03/11 12:32:55;;;;;;;4.63;2.87;;;22.80;40.20;;;;;;5046592;28;20708;-65
2023/03/11 12:35:23;;;;;;;6.83;3.00;;;23.40;39.10;;;;;;5043510;28;21306;-66
2023/03/11 12:38:26;;;;;;;4.20;2.90;;;24.30;36.80;;;;;;5054897;28;20456;-66
2023/03/11 12:41:26;;;;;;;3.23;2.60;;;26.10;37.30;;;;;;5049204;28;20447;-66
2023/03/11 12:43:51;;;;;;;3.93;2.57;;;28.20;35.10;;;;;;5047063;28;21340;-66
2023/03/11 12:46:17;;;;;;;4.10;3.10;;;28.70;30.80;;;;;;5049072;28;20470;-65
2023/03/11 12:48:48;;;;;;;6.20;2.87;;;29.10;30.70;;;;;;5050323;28;20262;-65
2023/03/11 12:51:26;;;;;;;3.50;2.60;;;29.60;29.00;;;;;;5049482;28;20445;-66
2023/03/11 12:53:53;;;;;;;3.47;2.80;;;30.10;29.00;;;;;;5051521;28;20583;-65
2023/03/11 12:56:24;;;;;;;4.03;2.80;;;30.20;26.80;;;;;;5052468;28;20545;-65
2023/03/11 12:58:56;;;;;;;3.27;2.97;;;30.60;28.00;;;;;;5045168;28;20892;-65
2023/03/11 13:01:52;;;;;;;4.10;2.83;;;30.50;26.90;;;;;;5048874;28;20430;-65
2023/03/11 13:04:20;;;;;;;3.93;2.90;;;30.70;25.70;;;;;;5046732;28;21072;-65
2023/03/11 13:07:12;;;;;;;2.90;2.40;;;30.00;25.60;;;;;;5055785;28;20520;-65